createdAt,value
2023-02-13T00:00:35.926Z,46.15
2023-02-13T00:03:03.763Z,41.03
2023-02-13T00:05:30.904Z,40.88
2023-02-13T00:07:58.254Z,39.75
2023-02-13T00:10:25.792Z,42.53
2023-02-13T00:12:53.002Z,39.75
2023-02-13T00:15:20.313Z,39.05
2023-02-13T00:17:47.521Z,45.70
2023-02-13T00:20:14.631Z,41.60
2023-02-13T00:22:42.053Z,41.53
2023-02-13T00:25:09.669Z,40.85
2023-02-13T00:27:37.100Z,38.10
2023-02-13T00:30:05.713Z,44.03
2023-02-13T00:32:33.200Z,37.03
2023-02-13T00:35:00.373Z,41.63
2023-02-13T00:37:27.699Z,34.33
2023-02-13T00:39:54.890Z,37.35
2023-02-13T00:42:26.616Z,33.78
2023-02-13T00:44:54.798Z,36.80
2023-02-13T00:47:23.628Z,37.42
2023-02-13T00:49:50.945Z,40.13
2023-02-13T00:52:18.257Z,37.80
2023-02-13T00:54:46.798Z,37.72
2023-02-13T00:57:13.926Z,42.83
2023-02-13T00:59:42.842Z,37.72
2023-02-13T01:02:10.049Z,38.20
2023-02-13T01:04:37.420Z,35.75
2023-02-13T01:07:04.662Z,38.00
2023-02-13T01:09:32.030Z,36.17
2023-02-13T01:11:59.160Z,38.40
2023-02-13T01:14:26.561Z,34.80
2023-02-13T01:16:53.772Z,31.77
2023-02-13T01:19:21.082Z,34.67
2023-02-13T01:21:48.372Z,34.55
2023-02-13T01:24:15.656Z,30.00
2023-02-13T01:26:42.862Z,29.58
2023-02-13T01:29:13.056Z,32.60
2023-02-13T01:31:40.545Z,26.70
2023-02-13T01:34:07.832Z,33.35
2023-02-13T01:36:35.084Z,28.73
2023-02-13T01:39:02.306Z,28.15
2023-02-13T01:41:31.570Z,27.98
2023-02-13T01:44:02.209Z,28.75
2023-02-13T01:46:37.283Z,25.98
2023-02-13T01:49:18.761Z,26.05
2023-02-13T01:51:47.598Z,25.05
2023-02-13T01:54:19.336Z,25.90
2023-02-13T01:59:29.076Z,23.05
2023-02-13T02:01:58.314Z,24.73
2023-02-13T02:04:32.231Z,20.58
2023-02-13T02:07:08.922Z,22.27
2023-02-13T02:09:39.665Z,23.40
2023-02-13T02:12:32.752Z,22.10
2023-02-13T02:15:02.261Z,22.58
2023-02-13T02:17:33.242Z,20.92
2023-02-13T02:20:20.349Z,23.17
2023-02-13T02:23:27.354Z,20.60
2023-02-13T02:26:37.086Z,24.38
2023-02-13T02:29:28.709Z,25.80
2023-02-13T02:32:15.916Z,20.63
2023-02-13T02:35:22.884Z,21.88
2023-02-13T02:38:29.913Z,22.55
2023-02-13T02:41:46.363Z,22.95
2023-02-13T02:44:45.838Z,22.35
2023-02-13T02:47:58.815Z,22.67
2023-02-13T02:50:52.010Z,27.20
2023-02-13T02:53:39.638Z,23.55
2023-02-13T02:56:19.360Z,25.58
2023-02-13T02:59:14.704Z,22.75
2023-02-13T03:04:56.396Z,23.63
2023-02-13T03:07:24.150Z,25.52
2023-02-13T03:10:19.403Z,23.23
2023-02-13T03:13:20.525Z,25.92
2023-02-13T03:16:11.435Z,23.27
2023-02-13T03:19:03.254Z,25.42
2023-02-13T03:22:13.740Z,26.75
2023-02-13T03:25:07.992Z,25.02
2023-02-13T03:28:21.320Z,26.17
2023-02-13T03:31:28.419Z,24.83
2023-02-13T03:34:07.074Z,29.98
2023-02-13T03:37:07.069Z,28.83
2023-02-13T03:40:00.407Z,26.20
2023-02-13T03:42:42.590Z,25.63
2023-02-13T03:45:36.837Z,24.92
2023-02-13T03:48:10.104Z,24.98
2023-02-13T03:50:43.351Z,23.85
2023-02-13T03:53:14.196Z,25.80
2023-02-13T03:56:06.535Z,22.15
2023-02-13T03:59:03.245Z,25.98
2023-02-13T04:01:34.193Z,25.38
2023-02-13T04:04:24.169Z,24.60
2023-02-13T04:06:58.372Z,26.77
2023-02-13T04:09:28.737Z,28.65
2023-02-13T04:12:25.324Z,26.58
2023-02-13T04:15:05.109Z,25.25
2023-02-13T04:17:39.262Z,26.10
2023-02-13T04:20:08.014Z,24.05
2023-02-13T04:22:35.244Z,25.42
2023-02-13T04:25:02.504Z,23.83
2023-02-13T04:27:29.720Z,24.48
2023-02-13T04:29:56.905Z,24.08
2023-02-13T04:32:24.059Z,23.58
2023-02-13T04:34:51.353Z,28.30
2023-02-13T04:37:18.505Z,22.33
2023-02-13T04:39:45.764Z,25.83
2023-02-13T04:42:12.988Z,24.98
2023-02-13T04:44:40.246Z,21.95
2023-02-13T04:47:07.357Z,28.23
2023-02-13T04:49:34.707Z,27.00
2023-02-13T04:52:01.813Z,24.73
2023-02-13T04:54:29.018Z,23.55
2023-02-13T04:56:56.262Z,23.98
2023-02-13T04:59:23.438Z,25.10
2023-02-13T05:01:50.563Z,23.95
2023-02-13T05:04:17.909Z,28.75
2023-02-13T05:06:45.257Z,26.50
2023-02-13T05:09:12.614Z,22.67
2023-02-13T05:11:39.939Z,28.63
2023-02-13T05:14:07.254Z,24.58
2023-02-13T05:16:34.454Z,22.58
2023-02-13T05:19:01.687Z,26.70
2023-02-13T05:21:48.856Z,25.60
2023-02-13T05:24:16.168Z,25.08
2023-02-13T05:26:43.338Z,24.30
2023-02-13T05:29:31.494Z,21.98
2023-02-13T05:32:00.141Z,25.42
2023-02-13T05:34:29.052Z,28.67
2023-02-13T05:36:56.593Z,28.00
2023-02-13T05:39:23.736Z,23.02
2023-02-13T05:41:50.940Z,25.00
2023-02-13T05:44:18.232Z,28.98
2023-02-13T05:46:45.622Z,27.48
2023-02-13T05:49:15.189Z,28.05
2023-02-13T05:51:43.660Z,26.42
2023-02-13T05:54:10.803Z,26.60
2023-02-13T05:56:38.031Z,27.70
2023-02-13T05:59:05.300Z,28.90
2023-02-13T06:01:32.535Z,31.65
2023-02-13T06:04:02.036Z,26.10
2023-02-13T06:06:30.748Z,24.02
2023-02-13T06:08:58.016Z,26.42
2023-02-13T06:11:25.346Z,25.92
2023-02-13T06:13:52.535Z,30.73
2023-02-13T06:16:19.856Z,24.92
2023-02-13T06:18:47.041Z,29.48
2023-02-13T06:21:14.614Z,25.20
2023-02-13T06:23:41.665Z,24.92
2023-02-13T06:26:09.899Z,27.83
2023-02-13T06:28:37.567Z,24.88
2023-02-13T06:31:05.428Z,27.88
2023-02-13T06:33:32.616Z,27.58
2023-02-13T06:35:59.905Z,23.83
2023-02-13T06:38:27.325Z,24.17
2023-02-13T06:41:01.968Z,27.40
2023-02-13T06:43:29.317Z,25.88
2023-02-13T06:45:57.025Z,28.73
2023-02-13T06:48:24.532Z,31.00
2023-02-13T06:50:53.071Z,29.48
2023-02-13T06:53:24.884Z,27.38
2023-02-13T06:55:53.838Z,25.48
2023-02-13T06:58:22.785Z,24.88
2023-02-13T07:00:51.352Z,26.40
2023-02-13T07:03:18.565Z,24.00
2023-02-13T07:05:46.231Z,27.55
2023-02-13T07:08:13.807Z,25.48
2023-02-13T07:10:42.085Z,25.38
2023-02-13T07:13:10.279Z,26.88
2023-02-13T07:15:39.120Z,29.25
2023-02-13T07:18:06.873Z,28.45
2023-02-13T07:20:34.589Z,25.80
2023-02-13T07:23:04.496Z,24.33
2023-02-13T07:25:32.353Z,25.88
2023-02-13T07:28:06.887Z,24.55
2023-02-13T07:30:35.231Z,25.70
2023-02-13T07:33:03.529Z,25.67
2023-02-13T07:35:31.533Z,21.60
2023-02-13T07:38:00.804Z,28.13
2023-02-13T07:40:28.227Z,25.80
2023-02-13T07:42:56.478Z,27.85
2023-02-13T07:45:23.731Z,25.92
2023-02-13T07:47:50.852Z,24.92
2023-02-13T07:50:18.179Z,27.67
2023-02-13T07:52:45.390Z,24.30
2023-02-13T07:55:12.672Z,24.77
2023-02-13T07:57:39.823Z,29.02
2023-02-13T08:00:08.021Z,23.45
2023-02-13T08:02:39.460Z,24.67
2023-02-13T08:05:07.431Z,27.25
2023-02-13T08:07:35.339Z,23.55
2023-02-13T08:10:23.021Z,25.88
2023-02-13T08:12:50.948Z,24.55
2023-02-13T08:15:18.198Z,24.52
2023-02-13T08:17:45.471Z,21.92
2023-02-13T08:20:13.055Z,22.80
2023-02-13T08:22:40.590Z,23.55
2023-02-13T08:25:08.297Z,25.25
2023-02-13T08:27:35.914Z,23.52
2023-02-13T08:30:03.673Z,25.48
2023-02-13T08:32:32.522Z,26.45
2023-02-13T08:35:02.692Z,27.52
2023-02-13T08:37:29.836Z,22.75
2023-02-13T08:39:57.339Z,25.02
2023-02-13T08:42:24.543Z,22.67
2023-02-13T08:44:51.806Z,23.60
2023-02-13T08:47:18.914Z,21.10
2023-02-13T08:49:46.343Z,25.33
2023-02-13T08:52:13.474Z,23.98
2023-02-13T08:54:40.682Z,23.27
2023-02-13T08:57:09.095Z,20.63
2023-02-13T08:59:36.278Z,22.38
2023-02-13T09:02:03.478Z,26.90
2023-02-13T09:04:31.132Z,24.27
2023-02-13T09:06:58.364Z,20.75
2023-02-13T09:09:25.584Z,21.55
2023-02-13T09:11:54.292Z,23.17
2023-02-13T09:14:23.287Z,20.27
2023-02-13T09:16:51.383Z,19.58
2023-02-13T09:19:18.685Z,22.48
2023-02-13T09:21:45.817Z,22.02
2023-02-13T09:24:13.016Z,21.88
2023-02-13T09:26:40.198Z,22.80
2023-02-13T09:29:07.461Z,22.73
2023-02-13T09:31:34.737Z,23.10
2023-02-13T09:34:02.211Z,23.17
2023-02-13T09:36:29.380Z,22.17
2023-02-13T09:38:57.802Z,20.55
2023-02-13T09:41:45.568Z,24.73
2023-02-13T09:44:44.451Z,21.30
2023-02-13T09:47:32.835Z,22.88
2023-02-13T09:50:24.204Z,22.92
2023-02-13T09:52:54.929Z,24.48
2023-02-13T09:55:53.097Z,25.40
2023-02-13T09:58:39.851Z,23.27
2023-02-13T10:01:15.980Z,24.17
2023-02-13T10:04:23.014Z,22.88
2023-02-13T10:07:17.501Z,21.63
2023-02-13T10:10:24.649Z,22.17
2023-02-13T10:13:06.050Z,23.02
2023-02-13T10:16:00.278Z,22.95
2023-02-13T10:21:05.394Z,21.67
2023-02-13T10:23:43.898Z,20.77
2023-02-13T10:26:22.227Z,20.60
2023-02-13T10:29:21.190Z,23.45
2023-02-13T10:31:52.825Z,22.08
2023-02-13T10:34:27.022Z,18.38
2023-02-13T10:36:55.220Z,20.90
2023-02-13T10:39:28.838Z,17.15
2023-02-13T10:42:36.590Z,16.90
2023-02-13T10:45:23.991Z,20.73
2023-02-13T10:48:31.031Z,18.00
2023-02-13T10:51:16.300Z,18.30
2023-02-13T10:54:23.341Z,17.35
2023-02-13T10:57:21.882Z,21.73
2023-02-13T11:00:12.898Z,15.80
2023-02-13T11:02:41.580Z,19.48
2023-02-13T11:05:37.096Z,18.58
2023-02-13T11:08:15.225Z,18.88
2023-02-13T11:10:42.497Z,21.30
2023-02-13T11:13:30.191Z,20.13
2023-02-13T11:16:14.077Z,18.70
2023-02-13T11:18:49.112Z,13.98
2023-02-13T11:21:34.807Z,17.45
2023-02-13T11:24:03.325Z,14.80
2023-02-13T11:26:36.004Z,13.77
2023-02-13T11:29:18.622Z,12.60
2023-02-13T11:31:46.130Z,10.98
2023-02-13T11:34:31.863Z,15.10
2023-02-13T11:37:21.932Z,20.27
2023-02-13T11:39:51.871Z,11.35
2023-02-13T11:42:42.852Z,10.93
2023-02-13T11:45:29.983Z,12.32
2023-02-13T11:47:57.662Z,10.40
2023-02-13T11:50:35.309Z,18.23
2023-02-13T11:53:25.736Z,14.10
2023-02-13T11:56:15.077Z,11.85
2023-02-13T11:58:43.084Z,12.88
2023-02-13T12:01:28.434Z,11.50
2023-02-13T12:04:18.068Z,10.20
2023-02-13T12:07:12.763Z,11.23
2023-02-13T12:09:41.698Z,13.45
2023-02-13T12:12:33.033Z,14.48
2023-02-13T12:15:06.229Z,9.88
2023-02-13T12:17:35.528Z,12.50
2023-02-13T12:20:03.538Z,10.38
2023-02-13T12:22:44.713Z,13.25
2023-02-13T12:25:35.457Z,12.13
2023-02-13T12:28:28.058Z,10.57
2023-02-13T12:31:23.723Z,12.10
2023-02-13T12:34:30.758Z,10.18
2023-02-13T12:37:32.656Z,10.75
2023-02-13T12:40:28.816Z,9.27
2023-02-13T12:43:19.014Z,12.50
2023-02-13T12:46:09.967Z,11.10
2023-02-13T12:49:14.098Z,11.38
2023-02-13T12:52:21.171Z,10.65
2023-02-13T12:55:28.180Z,10.80
2023-02-13T12:58:35.215Z,12.30
2023-02-13T13:01:38.822Z,15.57
2023-02-13T13:04:33.349Z,10.93
2023-02-13T13:07:38.212Z,12.55
2023-02-13T13:10:36.068Z,13.30
2023-02-13T13:13:30.249Z,11.20
2023-02-13T13:16:24.302Z,10.35
2023-02-13T13:19:31.319Z,10.52
2023-02-13T13:22:10.050Z,11.45
2023-02-13T13:25:08.878Z,10.43
2023-02-13T13:27:58.121Z,13.63
2023-02-13T13:30:30.201Z,12.07
2023-02-13T13:33:04.610Z,11.60
2023-02-13T13:35:33.291Z,14.43
2023-02-13T13:38:40.281Z,12.15
2023-02-13T13:41:25.938Z,12.43
2023-02-13T13:44:26.620Z,10.82
2023-02-13T13:47:33.641Z,12.45
2023-02-13T13:50:02.427Z,12.88
2023-02-13T13:52:39.915Z,10.05
2023-02-13T13:55:27.738Z,11.82
2023-02-13T13:58:00.847Z,13.70
2023-02-13T14:00:30.269Z,10.90
2023-02-13T14:03:22.454Z,12.13
2023-02-13T14:06:11.762Z,12.32
2023-02-13T14:09:01.029Z,11.32
2023-02-13T14:11:42.413Z,9.95
2023-02-13T14:14:44.979Z,12.68
2023-02-13T14:17:15.705Z,9.98
2023-02-13T14:19:49.925Z,14.25
2023-02-13T14:22:34.316Z,10.75
2023-02-13T14:25:27.242Z,11.85
2023-02-13T14:28:04.385Z,9.48
2023-02-13T14:30:35.763Z,9.35
2023-02-13T14:33:06.685Z,9.52
2023-02-13T14:35:37.694Z,12.77
2023-02-13T14:38:10.704Z,9.55
2023-02-13T14:40:58.277Z,11.60
2023-02-13T14:43:51.432Z,9.27
2023-02-13T14:46:38.151Z,9.25
2023-02-13T14:49:19.548Z,16.88
2023-02-13T14:51:51.256Z,10.07
2023-02-13T14:54:44.246Z,10.18
2023-02-13T14:57:34.652Z,9.48
2023-02-13T15:00:09.438Z,11.73
2023-02-13T15:02:45.139Z,10.32
2023-02-13T15:05:21.362Z,14.20
2023-02-13T15:07:54.051Z,13.57
2023-02-13T15:10:47.341Z,13.80
2023-02-13T15:13:18.540Z,9.63
2023-02-13T15:16:07.252Z,11.70
2023-02-13T15:18:42.392Z,11.63
2023-02-13T15:21:17.612Z,10.65
2023-02-13T15:23:49.902Z,12.40
2023-02-13T15:26:24.068Z,9.85
2023-02-13T15:29:25.872Z,12.02
2023-02-13T15:31:54.715Z,12.48
2023-02-13T15:34:32.337Z,10.48
2023-02-13T15:37:00.042Z,14.98
2023-02-13T15:39:30.466Z,10.77
2023-02-13T15:42:00.808Z,10.18
2023-02-13T15:44:32.139Z,11.13
2023-02-13T15:47:08.143Z,12.88
2023-02-13T15:49:42.645Z,12.65
2023-02-13T15:52:21.878Z,12.30
2023-02-13T15:54:55.029Z,9.73
2023-02-13T15:57:23.739Z,12.93
2023-02-13T15:59:52.503Z,13.13
2023-02-13T16:02:22.844Z,12.55
2023-02-13T16:04:54.855Z,10.85
2023-02-13T16:07:22.622Z,11.70
2023-02-13T16:09:49.827Z,13.70
2023-02-13T16:12:26.799Z,10.35
2023-02-13T16:15:02.369Z,10.57
2023-02-13T16:17:35.148Z,12.48
2023-02-13T16:20:16.695Z,14.48
2023-02-13T16:22:51.655Z,11.55
2023-02-13T16:25:32.447Z,12.30
2023-02-13T16:28:05.862Z,12.15
2023-02-13T16:30:43.415Z,12.38
2023-02-13T16:33:16.936Z,12.50
2023-02-13T16:35:55.344Z,11.80
2023-02-13T16:38:36.013Z,11.30
2023-02-13T16:41:27.006Z,11.73
2023-02-13T16:44:00.277Z,10.13
2023-02-13T16:46:37.876Z,12.20
2023-02-13T16:49:16.244Z,16.38
2023-02-13T16:52:11.507Z,11.45
2023-02-13T16:54:59.766Z,16.10
2023-02-13T16:57:33.827Z,15.73
2023-02-13T17:00:22.673Z,15.48
2023-02-13T17:02:51.666Z,12.80
2023-02-13T17:05:26.836Z,17.42
2023-02-13T17:07:58.760Z,16.17
2023-02-13T17:10:32.425Z,16.92
2023-02-13T17:13:02.614Z,13.43
2023-02-13T17:15:32.330Z,16.08
2023-02-13T17:18:00.151Z,12.70
2023-02-13T17:20:30.486Z,19.10
2023-02-13T17:23:00.408Z,10.65
2023-02-13T17:25:30.865Z,11.38
2023-02-13T17:28:01.793Z,19.60
2023-02-13T17:30:31.451Z,16.88
2023-02-13T17:33:09.027Z,20.48
2023-02-13T17:35:36.347Z,25.17
2023-02-13T17:38:04.192Z,20.15
2023-02-13T17:40:32.104Z,20.50
2023-02-13T17:43:01.073Z,18.95
2023-02-13T17:45:31.542Z,17.10
2023-02-13T17:47:59.397Z,22.75
2023-02-13T17:50:29.071Z,17.33
2023-02-13T17:52:57.295Z,29.25
2023-02-13T17:55:28.759Z,18.10
2023-02-13T17:57:57.365Z,13.45
2023-02-13T18:00:29.834Z,13.05
2023-02-13T18:02:59.404Z,14.98
2023-02-13T18:05:27.957Z,13.57
2023-02-13T18:07:55.984Z,14.60
2023-02-13T18:10:27.690Z,16.27
2023-02-13T18:12:57.095Z,16.38
2023-02-13T18:15:24.616Z,12.82
2023-02-13T18:17:51.891Z,15.63
2023-02-13T18:20:21.432Z,12.13
2023-02-13T18:22:50.791Z,12.18
2023-02-13T18:25:19.668Z,14.95
2023-02-13T18:27:47.770Z,15.07
2023-02-13T18:30:19.182Z,13.88
2023-02-13T18:32:51.249Z,14.57
2023-02-13T18:35:19.124Z,15.88
2023-02-13T18:37:46.270Z,14.18
2023-02-13T18:40:15.167Z,17.17
2023-02-13T18:42:42.260Z,14.88
2023-02-13T18:45:10.984Z,13.73
2023-02-13T18:47:38.284Z,15.07
2023-02-13T18:50:06.302Z,20.70
2023-02-13T18:52:35.258Z,15.88
2023-02-13T18:55:03.032Z,14.15
2023-02-13T18:57:30.160Z,16.65
2023-02-13T18:59:57.371Z,14.10
2023-02-13T19:02:24.701Z,13.07
2023-02-13T19:04:51.899Z,14.88
2023-02-13T19:07:19.020Z,18.15
2023-02-13T19:09:46.273Z,13.15
2023-02-13T19:12:13.430Z,12.45
2023-02-13T19:14:40.844Z,12.18
2023-02-13T19:17:08.690Z,15.77
2023-02-13T19:19:36.550Z,15.48
2023-02-13T19:22:03.838Z,15.63
2023-02-13T19:24:31.244Z,19.50
2023-02-13T19:26:58.634Z,22.17
2023-02-13T19:29:25.941Z,21.80
2023-02-13T19:31:53.138Z,18.88
2023-02-13T19:34:20.361Z,17.00
2023-02-13T19:36:47.505Z,16.27
2023-02-13T19:39:14.915Z,16.48
2023-02-13T19:41:42.007Z,15.95
2023-02-13T19:44:09.162Z,17.48
2023-02-13T19:46:38.363Z,21.45
2023-02-13T19:49:06.372Z,24.58
2023-02-13T19:51:35.026Z,25.25
2023-02-13T19:54:08.070Z,20.50
2023-02-13T19:56:39.185Z,26.20
2023-02-13T19:59:09.057Z,22.27
2023-02-13T20:01:36.222Z,18.67
2023-02-13T20:04:03.425Z,18.95
2023-02-13T20:06:37.878Z,17.95
2023-02-13T20:09:12.098Z,22.92
2023-02-13T20:11:43.173Z,20.80
2023-02-13T20:14:15.019Z,23.10
2023-02-13T20:16:45.554Z,36.10
2023-02-13T20:19:14.120Z,31.30
2023-02-13T20:21:42.760Z,26.85
2023-02-13T20:24:12.116Z,19.77
2023-02-13T20:26:40.260Z,21.80
2023-02-13T20:29:08.072Z,22.58
2023-02-13T20:31:35.985Z,24.80
2023-02-13T20:34:06.584Z,21.52
2023-02-13T20:36:34.828Z,28.10
2023-02-13T20:39:04.054Z,27.20
2023-02-13T20:41:33.710Z,30.15
2023-02-13T20:44:03.749Z,26.75
2023-02-13T20:46:32.588Z,29.73
2023-02-13T20:49:00.128Z,30.50
2023-02-13T20:51:27.451Z,23.40
2023-02-13T20:53:55.650Z,28.33
2023-02-13T20:56:25.529Z,30.20
2023-02-13T20:58:55.586Z,26.83
2023-02-13T21:01:25.896Z,30.58
2023-02-13T21:03:54.996Z,34.35
2023-02-13T21:06:28.157Z,28.90
2023-02-13T21:08:56.197Z,25.77
2023-02-13T21:11:24.347Z,25.13
2023-02-13T21:13:52.262Z,25.75
2023-02-13T21:16:23.588Z,24.95
2023-02-13T21:18:54.547Z,19.77
2023-02-13T21:21:23.746Z,26.88
2023-02-13T21:23:56.140Z,28.70
2023-02-13T21:26:24.127Z,26.75
2023-02-13T21:28:51.744Z,22.90
2023-02-13T21:31:40.771Z,22.75
2023-02-13T21:34:10.994Z,25.92
2023-02-13T21:36:39.134Z,21.33
2023-02-13T21:39:08.796Z,21.75
2023-02-13T21:41:37.631Z,22.98
2023-02-13T21:44:04.958Z,26.40
2023-02-13T21:46:33.356Z,26.08
2023-02-13T21:49:03.054Z,26.80
2023-02-13T21:51:32.758Z,21.92
2023-02-13T21:54:01.407Z,19.88
2023-02-13T21:56:34.768Z,18.42
2023-02-13T21:59:02.333Z,20.17
2023-02-13T22:01:44.790Z,18.50
2023-02-13T22:04:12.130Z,20.23
2023-02-13T22:06:40.590Z,19.15
2023-02-13T22:09:14.720Z,17.90
2023-02-13T22:11:42.760Z,17.38
2023-02-13T22:14:17.155Z,19.20
2023-02-13T22:16:45.798Z,18.48
2023-02-13T22:19:15.084Z,18.80
2023-02-13T22:21:42.841Z,19.08
2023-02-13T22:24:10.029Z,19.20
2023-02-13T22:26:40.241Z,21.73
2023-02-13T22:29:10.646Z,20.60
2023-02-13T22:31:38.561Z,25.15
2023-02-13T22:34:06.924Z,25.85
2023-02-13T22:36:38.533Z,23.52
2023-02-13T22:39:10.293Z,23.75
2023-02-13T22:41:37.866Z,21.25
2023-02-13T22:44:05.226Z,20.13
2023-02-13T22:46:34.041Z,21.45
2023-02-13T22:49:01.661Z,22.65
2023-02-13T22:51:35.037Z,18.60
2023-02-13T22:54:02.489Z,18.73
2023-02-13T22:56:31.867Z,23.13
2023-02-13T22:58:59.688Z,18.38
2023-02-13T23:01:28.233Z,22.42
2023-02-13T23:03:56.218Z,19.67
2023-02-13T23:06:24.325Z,18.23
2023-02-13T23:08:53.704Z,22.60
2023-02-13T23:11:44.652Z,21.05
2023-02-13T23:14:12.933Z,19.55
2023-02-13T23:17:00.846Z,19.85
2023-02-13T23:19:29.919Z,20.50
2023-02-13T23:21:57.726Z,15.85
2023-02-13T23:24:25.088Z,20.95
2023-02-13T23:26:52.232Z,18.95
2023-02-13T23:29:19.429Z,17.33
2023-02-13T23:31:46.835Z,18.92
2023-02-13T23:34:14.068Z,18.77
2023-02-13T23:36:41.229Z,19.40
2023-02-13T23:39:08.522Z,19.75
2023-02-13T23:41:35.756Z,18.35
2023-02-13T23:44:03.229Z,18.50
2023-02-13T23:46:30.644Z,19.60
2023-02-13T23:48:57.961Z,15.63
2023-02-13T23:51:25.814Z,17.60
2023-02-13T23:53:56.822Z,19.27
2023-02-13T23:56:25.556Z,17.48
2023-02-13T23:58:53.325Z,16.33
